METAR Formatted Surface Weather Observation
Issued by NWS

Home | Current Version | Previous Version | Text Only | Print | Product List | Glossary On
Versions: 1 2 3
000
SPZS31 NSTU 251741
MTRSPP
SPECI NSTU 251738Z 04007G14KT 10SM +SHRA VV004 25/24 A2995=


USA.gov is the U.S. government's official web portal to all federal, state and local government web resources and services.